Time;durP1;ratioP1;P1;durP2;ratioP2;P2;SDS_P1;SDS_P2;PMS_P1;PMS_P2;Temp;Humidity;BMP_temperature;BMP_pressure;BME280_temperature;BME280_humidity;BME280_pressure;Samples;Min_cycle;Max_cycle;Signal;HPM_P1;HPM_P2
2021/12/30 00:01:53;;;;;;;3.63;2.55;;;;;;;;;;5024540;28;20029;-30
2021/12/30 00:04:19;;;;;;;3.17;2.40;;;;;;;;;;5024922;28;20039;-33
2021/12/30 00:06:45;;;;;;;2.47;2.20;;;;;;;;;;5023511;28;20029;-32
2021/12/30 00:09:11;;;;;;;2.95;2.05;;;;;;;;;;5024020;28;20103;-32
2021/12/30 00:11:37;;;;;;;2.92;2.33;;;;;;;;;;5022655;28;20483;-28
2021/12/30 00:14:03;;;;;;;2.63;2.40;;;;;;;;;;5023805;28;20088;-34
2021/12/30 00:16:28;;;;;;;2.50;2.03;;;;;;;;;;5024656;28;20025;-35
2021/12/30 00:18:54;;;;;;;2.55;2.30;;;;;;;;;;5037436;28;20025;-33
2021/12/30 00:21:20;;;;;;;3.00;2.20;;;;;;;;;;5043728;28;20028;-33
2021/12/30 00:23:46;;;;;;;3.33;2.65;;;;;;;;;;5044122;28;20091;-30
2021/12/30 00:26:12;;;;;;;3.00;2.22;;;;;;;;;;5043989;28;20033;-30
2021/12/30 00:28:37;;;;;;;2.60;2.33;;;;;;;;;;5043971;28;20418;-29
2021/12/30 00:31:03;;;;;;;2.72;2.13;;;;;;;;;;5043690;28;20037;-33
2021/12/30 00:33:30;;;;;;;2.53;2.22;;;;;;;;;;5043946;28;20021;-30
2021/12/30 00:35:56;;;;;;;2.33;2.00;;;;;;;;;;5043312;28;20025;-29
2021/12/30 00:38:21;;;;;;;2.88;2.17;;;;;;;;;;5043686;28;20039;-29
2021/12/30 00:40:47;;;;;;;2.72;2.20;;;;;;;;;;5022910;28;20083;-32
2021/12/30 00:43:13;;;;;;;2.40;1.90;;;;;;;;;;5023761;28;20037;-33
2021/12/30 00:45:38;;;;;;;2.28;2.00;;;;;;;;;;5023684;28;20028;-34
2021/12/30 00:48:05;;;;;;;2.33;1.90;;;;;;;;;;5038420;28;20490;-30
2021/12/30 00:50:31;;;;;;;2.50;2.00;;;;;;;;;;5041565;28;20127;-30
2021/12/30 00:52:58;;;;;;;2.45;2.03;;;;;;;;;;5043442;28;20112;-32
2021/12/30 00:55:24;;;;;;;2.60;2.10;;;;;;;;;;5043214;28;20178;-30
2021/12/30 00:57:49;;;;;;;2.33;2.00;;;;;;;;;;5043011;28;20107;-30
2021/12/30 01:00:17;;;;;;;2.50;1.85;;;;;;;;;;5043573;28;20021;-33
2021/12/30 01:02:42;;;;;;;2.20;1.92;;;;;;;;;;5043398;28;20028;-31
2021/12/30 01:05:08;;;;;;;2.20;1.88;;;;;;;;;;5043223;28;20029;-36
2021/12/30 01:07:34;;;;;;;2.33;2.00;;;;;;;;;;5043004;28;20040;-32
2021/12/30 01:10:00;;;;;;;2.10;1.85;;;;;;;;;;5042789;28;20072;-31
2021/12/30 01:12:26;;;;;;;2.38;2.13;;;;;;;;;;5042925;28;20033;-33
2021/12/30 01:14:52;;;;;;;3.40;2.13;;;;;;;;;;5043114;28;20112;-30
2021/12/30 01:17:24;;;;;;;2.05;1.75;;;;;;;;;;5043230;28;21010;-32
2021/12/30 01:19:51;;;;;;;2.43;2.10;;;;;;;;;;5042647;28;20152;-33
2021/12/30 01:22:19;;;;;;;2.85;1.58;;;;;;;;;;5042608;28;20090;-36
2021/12/30 01:24:45;;;;;;;2.35;2.15;;;;;;;;;;5042903;28;20033;-31
2021/12/30 01:27:10;;;;;;;2.00;1.80;;;;;;;;;;5041277;28;20349;-34
2021/12/30 01:29:36;;;;;;;2.20;1.92;;;;;;;;;;5042468;28;20033;-34
2021/12/30 01:32:02;;;;;;;2.47;1.88;;;;;;;;;;5042381;28;20048;-37
2021/12/30 01:34:28;;;;;;;2.13;1.90;;;;;;;;;;5042570;28;20029;-30
2021/12/30 01:36:54;;;;;;;2.15;1.80;;;;;;;;;;5042624;28;20139;-34
2021/12/30 01:39:21;;;;;;;2.42;2.00;;;;;;;;;;5042474;28;20043;-35
2021/12/30 01:41:48;;;;;;;2.45;2.13;;;;;;;;;;5041197;28;20104;-31
2021/12/30 01:44:13;;;;;;;2.50;1.90;;;;;;;;;;5042586;28;20033;-32
2021/12/30 01:46:41;;;;;;;2.00;1.80;;;;;;;;;;5042685;28;20037;-32
2021/12/30 01:49:07;;;;;;;1.73;1.50;;;;;;;;;;5035047;28;20040;-33
2021/12/30 01:51:32;;;;;;;1.90;1.67;;;;;;;;;;5022834;28;20029;-35
2021/12/30 01:53:58;;;;;;;2.42;1.80;;;;;;;;;;5022370;28;20025;-35
2021/12/30 01:56:24;;;;;;;1.60;1.30;;;;;;;;;;5022675;28;20496;-30
2021/12/30 01:58:49;;;;;;;2.40;1.50;;;;;;;;;;5039647;28;20029;-29
2021/12/30 02:01:15;;;;;;;1.60;1.50;;;;;;;;;;5042419;28;20025;-32
2021/12/30 02:03:40;;;;;;;2.10;1.58;;;;;;;;;;5042486;28;20124;-30
2021/12/30 02:06:06;;;;;;;1.60;1.48;;;;;;;;;;5042501;28;20071;-28
2021/12/30 02:08:31;;;;;;;2.05;1.50;;;;;;;;;;5042084;28;20504;-30
2021/12/30 02:10:57;;;;;;;1.90;1.38;;;;;;;;;;5042414;28;20087;-31
2021/12/30 02:13:22;;;;;;;2.08;1.70;;;;;;;;;;5040842;28;20119;-33
2021/12/30 02:15:49;;;;;;;1.60;1.50;;;;;;;;;;5042497;28;20040;-32
2021/12/30 02:18:15;;;;;;;2.25;1.77;;;;;;;;;;5040472;28;20111;-31
2021/12/30 02:20:51;;;;;;;1.75;1.48;;;;;;;;;;5042399;28;20124;-30
2021/12/30 02:23:17;;;;;;;1.50;1.13;;;;;;;;;;5041905;28;20040;-29
2021/12/30 02:25:42;;;;;;;1.48;1.30;;;;;;;;;;5041963;28;20033;-33
2021/12/30 02:28:09;;;;;;;1.40;1.20;;;;;;;;;;5042183;28;20029;-32
2021/12/30 02:30:35;;;;;;;1.70;1.40;;;;;;;;;;5044502;28;20499;-33
2021/12/30 02:33:00;;;;;;;1.50;1.38;;;;;;;;;;5046359;28;20036;-33
2021/12/30 02:35:26;;;;;;;1.40;1.30;;;;;;;;;;5045983;28;20057;-33
2021/12/30 02:37:51;;;;;;;1.33;1.23;;;;;;;;;;5046044;28;20782;-33
2021/12/30 02:40:28;;;;;;;1.30;1.10;;;;;;;;;;5045722;28;20459;-29
2021/12/30 02:42:54;;;;;;;1.45;1.35;;;;;;;;;;5045949;28;20406;-31
2021/12/30 02:45:20;;;;;;;1.08;0.93;;;;;;;;;;5045742;28;20037;-30
2021/12/30 02:47:45;;;;;;;1.63;1.40;;;;;;;;;;5037536;28;20060;-34
2021/12/30 02:50:11;;;;;;;1.48;1.23;;;;;;;;;;5043269;28;20112;-32
2021/12/30 02:52:36;;;;;;;1.55;1.30;;;;;;;;;;5045722;28;20029;-31
2021/12/30 02:55:02;;;;;;;1.30;1.10;;;;;;;;;;5045321;28;20021;-35
2021/12/30 02:57:28;;;;;;;1.23;1.13;;;;;;;;;;5045559;28;20112;-34
2021/12/30 02:59:54;;;;;;;1.30;1.13;;;;;;;;;;5045353;28;20037;-31
2021/12/30 03:02:19;;;;;;;1.50;1.30;;;;;;;;;;5045392;28;20033;-33
2021/12/30 03:04:45;;;;;;;1.20;1.10;;;;;;;;;;5045309;28;20028;-31
2021/12/30 03:07:10;;;;;;;1.50;1.08;;;;;;;;;;5045122;28;20032;-32
2021/12/30 03:09:36;;;;;;;1.10;1.00;;;;;;;;;;5045081;28;20522;-35
2021/12/30 03:12:01;;;;;;;1.48;1.10;;;;;;;;;;5045134;28;20033;-30
2021/12/30 03:14:28;;;;;;;1.20;0.90;;;;;;;;;;5045177;28;20037;-33
2021/12/30 03:16:54;;;;;;;1.25;1.00;;;;;;;;;;5045334;28;20029;-29
2021/12/30 03:19:20;;;;;;;1.05;0.93;;;;;;;;;;5045125;28;20043;-30
2021/12/30 03:21:45;;;;;;;1.50;1.15;;;;;;;;;;5024886;28;20021;-33
2021/12/30 03:24:10;;;;;;;1.77;1.00;;;;;;;;;;5025387;28;20036;-34
2021/12/30 03:26:36;;;;;;;1.42;1.02;;;;;;;;;;5024981;28;20492;-35
2021/12/30 03:29:03;;;;;;;1.25;1.10;;;;;;;;;;5024881;28;20083;-31
2021/12/30 03:31:28;;;;;;;1.02;0.80;;;;;;;;;;5025160;28;20144;-35
2021/12/30 03:33:56;;;;;;;1.20;1.10;;;;;;;;;;5024824;28;20120;-30
2021/12/30 03:36:22;;;;;;;1.20;1.10;;;;;;;;;;5024654;28;20041;-33
2021/12/30 03:38:50;;;;;;;1.20;1.10;;;;;;;;;;5025074;28;20087;-29
2021/12/30 03:41:18;;;;;;;2.53;1.00;;;;;;;;;;5024764;28;20057;-31
2021/12/30 03:43:44;;;;;;;1.23;1.02;;;;;;;;;;5024725;28;20029;-32
2021/12/30 03:46:09;;;;;;;1.17;0.88;;;;;;;;;;5024713;28;20033;-30
2021/12/30 03:48:40;;;;;;;0.88;0.82;;;;;;;;;;5025125;28;20063;-30
2021/12/30 03:51:09;;;;;;;1.08;0.98;;;;;;;;;;5024541;28;20032;-32
2021/12/30 03:53:38;;;;;;;1.17;0.90;;;;;;;;;;5024738;28;20065;-34
2021/12/30 03:56:05;;;;;;;0.85;0.85;;;;;;;;;;5024544;28;20261;-34
2021/12/30 03:58:31;;;;;;;0.88;0.80;;;;;;;;;;5024438;28;20033;-32
2021/12/30 04:00:56;;;;;;;1.02;0.90;;;;;;;;;;5024472;28;20041;-31
2021/12/30 04:03:22;;;;;;;1.35;1.02;;;;;;;;;;5024243;28;20386;-30
2021/12/30 04:05:47;;;;;;;0.98;0.88;;;;;;;;;;5024440;28;20025;-32
2021/12/30 04:08:13;;;;;;;1.15;0.98;;;;;;;;;;5023947;28;20534;-31
2021/12/30 04:10:38;;;;;;;0.80;0.70;;;;;;;;;;5024248;28;20037;-33
2021/12/30 04:13:04;;;;;;;1.10;1.00;;;;;;;;;;5023978;28;20040;-30
2021/12/30 04:15:29;;;;;;;1.33;0.90;;;;;;;;;;5024243;28;20029;-32
2021/12/30 04:17:55;;;;;;;1.00;0.90;;;;;;;;;;5024591;28;20064;-31
2021/12/30 04:20:20;;;;;;;1.10;0.80;;;;;;;;;;5022576;28;20486;-29
2021/12/30 04:22:46;;;;;;;1.02;0.80;;;;;;;;;;5024229;28;20049;-30
2021/12/30 04:25:12;;;;;;;0.90;0.75;;;;;;;;;;5023978;28;20057;-34
2021/12/30 04:27:38;;;;;;;0.88;0.75;;;;;;;;;;5024032;28;20029;-33
2021/12/30 04:30:05;;;;;;;1.00;0.88;;;;;;;;;;5024105;28;20103;-34
2021/12/30 04:32:31;;;;;;;0.88;0.80;;;;;;;;;;5036755;28;20551;-34
2021/12/30 04:34:56;;;;;;;0.60;0.52;;;;;;;;;;5043686;28;20021;-33
2021/12/30 04:37:22;;;;;;;2.17;1.00;;;;;;;;;;5043770;28;20888;-33
2021/12/30 04:39:47;;;;;;;1.02;0.90;;;;;;;;;;5043507;28;20036;-31
2021/12/30 04:42:13;;;;;;;1.00;0.80;;;;;;;;;;5043675;28;20041;-33
2021/12/30 04:44:39;;;;;;;0.80;0.80;;;;;;;;;;5043712;28;20039;-32
2021/12/30 04:47:05;;;;;;;1.05;0.70;;;;;;;;;;5043528;28;20098;-31
2021/12/30 04:49:30;;;;;;;1.17;0.93;;;;;;;;;;5042469;28;20045;-30
2021/12/30 04:51:56;;;;;;;1.10;0.90;;;;;;;;;;5043212;28;20086;-32
2021/12/30 04:54:21;;;;;;;0.80;0.70;;;;;;;;;;5043232;28;20133;-38
2021/12/30 04:56:47;;;;;;;0.90;0.80;;;;;;;;;;5043513;28;20033;-29
2021/12/30 04:59:12;;;;;;;0.77;0.70;;;;;;;;;;5043171;28;20037;-32
2021/12/30 05:01:38;;;;;;;0.73;0.65;;;;;;;;;;5043264;28;20025;-29
2021/12/30 05:04:05;;;;;;;0.50;0.50;;;;;;;;;;5043447;28;20027;-32
2021/12/30 05:06:32;;;;;;;0.85;0.63;;;;;;;;;;5043445;28;20033;-30
2021/12/30 05:08:59;;;;;;;0.80;0.77;;;;;;;;;;5042946;28;20572;-30
2021/12/30 05:11:24;;;;;;;0.90;0.80;;;;;;;;;;5043196;28;20877;-33
2021/12/30 05:13:50;;;;;;;0.70;0.60;;;;;;;;;;5042936;28;20044;-31
2021/12/30 05:16:17;;;;;;;0.90;0.80;;;;;;;;;;5042792;28;20056;-31
2021/12/30 05:18:43;;;;;;;1.05;0.73;;;;;;;;;;5042995;28;20094;-32
2021/12/30 05:21:09;;;;;;;1.05;0.80;;;;;;;;;;5042879;28;20033;-29
2021/12/30 05:23:35;;;;;;;0.80;0.75;;;;;;;;;;5043059;28;20808;-32
2021/12/30 05:26:01;;;;;;;1.00;0.77;;;;;;;;;;5042771;28;20033;-31
2021/12/30 05:28:26;;;;;;;0.77;0.70;;;;;;;;;;5042756;28;20039;-29
2021/12/30 05:30:52;;;;;;;0.70;0.60;;;;;;;;;;5042818;28;20043;-30
2021/12/30 05:33:17;;;;;;;0.60;0.60;;;;;;;;;;5042611;28;20166;-34
2021/12/30 05:35:43;;;;;;;1.33;0.80;;;;;;;;;;5042479;28;20040;-31
2021/12/30 05:38:09;;;;;;;0.70;0.60;;;;;;;;;;5042740;28;20056;-32
2021/12/30 05:40:34;;;;;;;0.70;0.65;;;;;;;;;;5042636;28;20025;-33
2021/12/30 05:43:00;;;;;;;1.02;0.47;;;;;;;;;;5042768;28;20040;-33
2021/12/30 05:45:29;;;;;;;0.85;0.73;;;;;;;;;;5042855;28;20461;-31
2021/12/30 05:47:54;;;;;;;0.70;0.70;;;;;;;;;;5041883;28;20033;-34
2021/12/30 05:50:22;;;;;;;0.82;0.80;;;;;;;;;;5042115;28;20469;-32
2021/12/30 05:52:48;;;;;;;0.68;0.57;;;;;;;;;;5042625;28;20567;-32
2021/12/30 05:55:14;;;;;;;0.80;0.70;;;;;;;;;;5042386;28;20036;-34
2021/12/30 05:57:40;;;;;;;0.68;0.68;;;;;;;;;;5042504;28;20037;-29
2021/12/30 06:00:07;;;;;;;0.70;0.70;;;;;;;;;;5042647;28;20033;-31
2021/12/30 06:02:32;;;;;;;0.50;0.50;;;;;;;;;;5042440;28;20517;-35
2021/12/30 06:04:57;;;;;;;0.70;0.70;;;;;;;;;;5034828;28;20038;-29
2021/12/30 06:07:23;;;;;;;0.73;0.60;;;;;;;;;;5026380;28;20029;-34
2021/12/30 06:09:49;;;;;;;1.00;0.80;;;;;;;;;;5025227;28;20040;-33
2021/12/30 06:12:15;;;;;;;0.88;0.80;;;;;;;;;;5025243;28;20037;-33
2021/12/30 06:14:41;;;;;;;0.80;0.70;;;;;;;;;;5028180;28;20493;-31
2021/12/30 06:17:06;;;;;;;0.60;0.60;;;;;;;;;;5045175;28;20526;-35
2021/12/30 06:19:32;;;;;;;0.70;0.70;;;;;;;;;;5045390;28;20025;-31
2021/12/30 06:21:57;;;;;;;0.85;0.80;;;;;;;;;;5045251;28;20040;-32
2021/12/30 06:24:23;;;;;;;0.77;0.70;;;;;;;;;;5045093;28;20106;-35
2021/12/30 06:26:48;;;;;;;1.17;0.90;;;;;;;;;;5045117;28;20021;-32
2021/12/30 06:29:14;;;;;;;0.77;0.60;;;;;;;;;;5044624;28;20574;-33
2021/12/30 06:31:41;;;;;;;0.95;0.80;;;;;;;;;;5044683;28;20033;-36
2021/12/30 06:34:06;;;;;;;0.80;0.68;;;;;;;;;;5044441;28;20036;-35
2021/12/30 06:36:32;;;;;;;1.08;0.82;;;;;;;;;;5045043;28;20021;-35
2021/12/30 06:38:57;;;;;;;0.70;0.60;;;;;;;;;;5044543;28;20884;-39
2021/12/30 06:41:23;;;;;;;0.90;0.80;;;;;;;;;;5044760;28;20021;-32
2021/12/30 06:43:48;;;;;;;0.77;0.63;;;;;;;;;;5044723;28;20399;-31
2021/12/30 06:46:14;;;;;;;1.00;0.75;;;;;;;;;;5044364;28;20448;-29
2021/12/30 06:48:44;;;;;;;0.77;0.70;;;;;;;;;;5036524;28;20423;-30
2021/12/30 06:51:11;;;;;;;0.82;0.70;;;;;;;;;;5024510;28;20041;-31
2021/12/30 06:53:36;;;;;;;0.80;0.60;;;;;;;;;;5024659;28;20340;-34
2021/12/30 06:56:02;;;;;;;0.90;0.70;;;;;;;;;;5024552;28;20529;-30
2021/12/30 06:58:28;;;;;;;1.10;0.80;;;;;;;;;;5024724;28;20043;-34
2021/12/30 07:00:54;;;;;;;0.93;0.70;;;;;;;;;;5022919;28;20502;-31
2021/12/30 07:03:19;;;;;;;1.35;0.73;;;;;;;;;;5024140;28;20025;-31
2021/12/30 07:05:45;;;;;;;0.98;0.80;;;;;;;;;;5024562;28;20025;-31
2021/12/30 07:08:10;;;;;;;2.65;0.90;;;;;;;;;;4984195;28;1372018;-32
2021/12/30 07:10:36;;;;;;;0.93;0.73;;;;;;;;;;5045905;28;20033;-36
2021/12/30 07:13:02;;;;;;;0.73;0.60;;;;;;;;;;5045239;28;20040;-34
2021/12/30 07:15:27;;;;;;;0.95;0.77;;;;;;;;;;5045109;28;20444;-32
2021/12/30 07:17:52;;;;;;;1.17;0.82;;;;;;;;;;5044936;28;20044;-31
2021/12/30 07:20:20;;;;;;;1.15;1.05;;;;;;;;;;5045209;28;20033;-33
2021/12/30 07:22:46;;;;;;;1.20;1.00;;;;;;;;;;5045178;28;20032;-34
2021/12/30 07:25:16;;;;;;;1.00;0.70;;;;;;;;;;5044887;28;20032;-32
2021/12/30 07:27:44;;;;;;;1.05;0.80;;;;;;;;;;5044723;28;20033;-30
2021/12/30 07:30:10;;;;;;;2.33;1.15;;;;;;;;;;5045021;28;20133;-34
2021/12/30 07:32:36;;;;;;;1.50;1.02;;;;;;;;;;5045023;28;20090;-34
2021/12/30 07:35:02;;;;;;;1.38;0.90;;;;;;;;;;5045269;28;20025;-33
2021/12/30 07:37:27;;;;;;;2.42;0.95;;;;;;;;;;5045004;28;20033;-33
2021/12/30 07:39:53;;;;;;;1.02;0.80;;;;;;;;;;5044888;28;20056;-33
2021/12/30 07:42:18;;;;;;;1.33;1.02;;;;;;;;;;5044647;28;20055;-34
2021/12/30 07:44:44;;;;;;;3.10;1.00;;;;;;;;;;5044809;28;20116;-30
2021/12/30 07:47:09;;;;;;;1.20;0.88;;;;;;;;;;5044389;28;20029;-30
2021/12/30 07:49:37;;;;;;;1.45;1.00;;;;;;;;;;5029253;28;20033;-33
2021/12/30 07:52:04;;;;;;;2.20;1.17;;;;;;;;;;5024593;28;20033;-32
2021/12/30 07:54:30;;;;;;;1.08;0.90;;;;;;;;;;5024879;28;20145;-34
2021/12/30 07:56:55;;;;;;;1.38;1.08;;;;;;;;;;5024774;28;20470;-31
2021/12/30 07:59:21;;;;;;;2.05;1.00;;;;;;;;;;5024688;28;20511;-32
2021/12/30 08:01:46;;;;;;;1.50;1.10;;;;;;;;;;5024241;28;20112;-35
2021/12/30 08:04:12;;;;;;;1.15;0.95;;;;;;;;;;5024689;28;20037;-31
2021/12/30 08:06:37;;;;;;;1.50;0.95;;;;;;;;;;5024359;28;20025;-33
2021/12/30 08:09:03;;;;;;;1.77;1.23;;;;;;;;;;5023881;28;20057;-33
2021/12/30 08:11:28;;;;;;;1.02;0.93;;;;;;;;;;5024641;28;20040;-36
2021/12/30 08:13:54;;;;;;;1.20;1.08;;;;;;;;;;5024602;28;20567;-31
2021/12/30 08:16:20;;;;;;;1.20;0.93;;;;;;;;;;5024154;28;20091;-32
2021/12/30 08:18:45;;;;;;;2.17;1.27;;;;;;;;;;5024194;28;20034;-30
2021/12/30 08:21:11;;;;;;;1.60;1.30;;;;;;;;;;5024025;28;20032;-31
2021/12/30 08:23:37;;;;;;;1.67;1.10;;;;;;;;;;5022787;28;20120;-33
2021/12/30 08:26:05;;;;;;;1.20;1.02;;;;;;;;;;5023866;28;20499;-33
2021/12/30 08:28:31;;;;;;;1.25;0.88;;;;;;;;;;5023041;28;20049;-37
2021/12/30 08:30:56;;;;;;;1.10;0.95;;;;;;;;;;5024245;28;20025;-33
2021/12/30 08:33:22;;;;;;;1.45;1.00;;;;;;;;;;5023708;28;20103;-31
2021/12/30 08:35:48;;;;;;;1.85;1.27;;;;;;;;;;5023965;28;20045;-34
2021/12/30 08:38:13;;;;;;;1.20;1.05;;;;;;;;;;5023818;28;20072;-31
2021/12/30 08:40:39;;;;;;;1.05;0.90;;;;;;;;;;5023914;28;20472;-32
2021/12/30 08:43:06;;;;;;;1.67;1.15;;;;;;;;;;5023969;28;20021;-30
2021/12/30 08:45:36;;;;;;;1.10;0.90;;;;;;;;;;5023542;28;20112;-35
2021/12/30 08:48:02;;;;;;;1.30;1.00;;;;;;;;;;5024741;28;20025;-36
2021/12/30 08:50:27;;;;;;;1.42;1.30;;;;;;;;;;5023773;28;20025;-30
2021/12/30 08:52:53;;;;;;;1.45;0.98;;;;;;;;;;5022067;28;20068;-32
2021/12/30 08:55:18;;;;;;;1.58;1.27;;;;;;;;;;5023850;28;20088;-34
2021/12/30 08:57:44;;;;;;;1.50;1.20;;;;;;;;;;5023605;28;20041;-31
2021/12/30 09:00:23;;;;;;;1.90;1.05;;;;;;;;;;5023275;28;20507;-33
2021/12/30 09:02:49;;;;;;;1.48;1.05;;;;;;;;;;5024061;28;20108;-33
2021/12/30 09:05:15;;;;;;;1.52;1.30;;;;;;;;;;5023320;28;20481;-30
2021/12/30 09:07:40;;;;;;;1.38;1.17;;;;;;;;;;5023474;28;20069;-32
2021/12/30 09:10:07;;;;;;;1.67;1.30;;;;;;;;;;5023289;28;20073;-34
2021/12/30 09:12:32;;;;;;;1.95;1.30;;;;;;;;;;5023188;28;20112;-31
2021/12/30 09:14:58;;;;;;;1.73;1.33;;;;;;;;;;5023016;28;20104;-31
2021/12/30 09:17:23;;;;;;;2.22;1.48;;;;;;;;;;5023066;28;20056;-30
2021/12/30 09:19:49;;;;;;;1.55;1.25;;;;;;;;;;5023003;28;20105;-31
2021/12/30 09:22:14;;;;;;;1.33;1.23;;;;;;;;;;5023334;28;20037;-31
2021/12/30 09:24:40;;;;;;;2.00;1.38;;;;;;;;;;5023070;28;20614;-32
2021/12/30 09:27:06;;;;;;;1.70;1.38;;;;;;;;;;5023314;28;20032;-32
2021/12/30 09:29:31;;;;;;;2.42;1.40;;;;;;;;;;5022690;28;20033;-34
2021/12/30 09:32:00;;;;;;;1.55;1.20;;;;;;;;;;5022662;28;20029;-30
2021/12/30 09:34:26;;;;;;;1.83;1.33;;;;;;;;;;5022650;28;20032;-31
2021/12/30 09:36:51;;;;;;;2.05;1.60;;;;;;;;;;5022907;28;20030;-33
2021/12/30 09:39:17;;;;;;;1.80;1.40;;;;;;;;;;5022890;28;20029;-30
2021/12/30 09:41:44;;;;;;;2.00;1.25;;;;;;;;;;5022841;28;20025;-32
2021/12/30 09:44:11;;;;;;;1.52;1.10;;;;;;;;;;5022807;28;20472;-30
2021/12/30 09:46:37;;;;;;;1.55;1.13;;;;;;;;;;5022919;28;20021;-30
2021/12/30 09:49:05;;;;;;;1.27;1.10;;;;;;;;;;5035041;28;20094;-31
2021/12/30 09:51:30;;;;;;;1.55;1.20;;;;;;;;;;5042846;28;20040;-34
2021/12/30 09:53:56;;;;;;;1.85;1.27;;;;;;;;;;5042350;28;20339;-31
2021/12/30 09:56:22;;;;;;;2.60;1.75;;;;;;;;;;5042569;28;20142;-36
2021/12/30 09:58:47;;;;;;;1.92;1.35;;;;;;;;;;5042691;28;20036;-31
2021/12/30 10:01:13;;;;;;;1.88;1.30;;;;;;;;;;5042330;28;20355;-34
2021/12/30 10:03:39;;;;;;;2.35;1.42;;;;;;;;;;5042345;28;20485;-30
2021/12/30 10:06:10;;;;;;;1.73;1.38;;;;;;;;;;5042451;28;20121;-31
2021/12/30 10:08:40;;;;;;;1.98;1.40;;;;;;;;;;5041066;28;20122;-33
2021/12/30 10:11:12;;;;;;;1.98;1.60;;;;;;;;;;5042387;28;20033;-29
2021/12/30 10:13:40;;;;;;;1.80;1.30;;;;;;;;;;5042351;28;20032;-34
2021/12/30 10:16:13;;;;;;;2.22;1.63;;;;;;;;;;5041229;28;20105;-30
2021/12/30 10:18:47;;;;;;;2.55;1.60;;;;;;;;;;5042549;28;20036;-33
2021/12/30 10:21:15;;;;;;;2.88;1.95;;;;;;;;;;5042478;28;20051;-31
2021/12/30 10:23:43;;;;;;;4.07;1.70;;;;;;;;;;5042398;28;20134;-32
2021/12/30 10:26:08;;;;;;;2.42;1.63;;;;;;;;;;5042142;28;20033;-31
2021/12/30 10:28:36;;;;;;;1.73;1.48;;;;;;;;;;5042368;28;20103;-30
2021/12/30 10:31:11;;;;;;;2.28;1.50;;;;;;;;;;5042420;28;20120;-35
2021/12/30 10:33:36;;;;;;;2.00;1.58;;;;;;;;;;5042352;28;20025;-33
2021/12/30 10:36:02;;;;;;;2.45;1.90;;;;;;;;;;5042019;28;20102;-35
2021/12/30 10:38:28;;;;;;;2.10;1.60;;;;;;;;;;5023971;28;20029;-34
2021/12/30 10:40:54;;;;;;;1.73;1.30;;;;;;;;;;5042275;28;20032;-35
2021/12/30 10:43:32;;;;;;;1.83;1.48;;;;;;;;;;5023860;28;20533;-31
2021/12/30 10:46:07;;;;;;;2.38;1.52;;;;;;;;;;5042132;28;20024;-34
2021/12/30 10:48:33;;;;;;;1.52;1.33;;;;;;;;;;5041355;28;20400;-32
2021/12/30 10:51:17;;;;;;;2.20;1.70;;;;;;;;;;5041828;28;20036;-32
2021/12/30 10:53:42;;;;;;;4.00;1.92;;;;;;;;;;5045277;28;20025;-32
2021/12/30 10:56:28;;;;;;;3.35;1.70;;;;;;;;;;5045632;28;20028;-33
2021/12/30 10:58:55;;;;;;;1.77;1.50;;;;;;;;;;5045614;28;20037;-35
2021/12/30 11:01:21;;;;;;;2.45;1.70;;;;;;;;;;5045224;28;20090;-31
2021/12/30 11:04:00;;;;;;;2.90;1.73;;;;;;;;;;5025669;28;20021;-32
2021/12/30 11:06:26;;;;;;;3.00;1.80;;;;;;;;;;5025603;28;20037;-30
2021/12/30 11:09:09;;;;;;;2.22;1.60;;;;;;;;;;5025299;28;20049;-32
2021/12/30 11:11:35;;;;;;;2.13;1.80;;;;;;;;;;5025879;28;20029;-29
2021/12/30 11:14:01;;;;;;;2.40;1.67;;;;;;;;;;5025143;28;20030;-32
2021/12/30 11:16:26;;;;;;;1.40;1.30;;;;;;;;;;5025408;28;20488;-32
2021/12/30 11:18:52;;;;;;;2.60;1.83;;;;;;;;;;5025304;28;20030;-32
2021/12/30 11:21:39;;;;;;;2.40;1.88;;;;;;;;;;5025290;28;20029;-34
2021/12/30 11:24:06;;;;;;;2.22;1.60;;;;;;;;;;5025486;28;20030;-34
2021/12/30 11:26:31;;;;;;;2.10;1.55;;;;;;;;;;5025063;28;20079;-28
2021/12/30 11:28:57;;;;;;;2.03;1.50;;;;;;;;;;5025096;28;20049;-30
2021/12/30 11:31:23;;;;;;;2.40;1.90;;;;;;;;;;5025027;28;20043;-32
2021/12/30 11:33:48;;;;;;;1.88;1.50;;;;;;;;;;5024974;28;20112;-33
2021/12/30 11:36:16;;;;;;;2.10;1.55;;;;;;;;;;5025193;28;20029;-35
2021/12/30 11:38:42;;;;;;;1.80;1.40;;;;;;;;;;5025197;28;20032;-32
2021/12/30 11:41:07;;;;;;;1.75;1.33;;;;;;;;;;5024737;28;20033;-36
2021/12/30 11:43:43;;;;;;;2.15;1.70;;;;;;;;;;5023479;28;20102;-34
2021/12/30 11:46:38;;;;;;;2.10;1.60;;;;;;;;;;5024811;28;20025;-29
2021/12/30 11:49:05;;;;;;;2.08;1.65;;;;;;;;;;5025234;28;20175;-30
2021/12/30 11:52:00;;;;;;;2.58;1.50;;;;;;;;;;5024768;28;20036;-30
2021/12/30 11:54:38;;;;;;;2.15;1.60;;;;;;;;;;5018557;28;20554;-32
2021/12/30 11:57:23;;;;;;;4.20;1.70;;;;;;;;;;5037547;28;20067;-30
2021/12/30 11:59:48;;;;;;;2.88;1.80;;;;;;;;;;5044492;28;20033;-32
2021/12/30 12:02:34;;;;;;;2.25;1.73;;;;;;;;;;5042984;28;20029;-32
2021/12/30 12:05:38;;;;;;;2.38;1.70;;;;;;;;;;5044425;28;20040;-32
2021/12/30 12:08:04;;;;;;;2.35;1.65;;;;;;;;;;5043956;28;20068;-31
2021/12/30 12:10:30;;;;;;;1.80;1.40;;;;;;;;;;5044198;28;20075;-31
2021/12/30 12:12:55;;;;;;;2.20;1.40;;;;;;;;;;5044370;28;20029;-32
2021/12/30 12:15:21;;;;;;;1.77;1.20;;;;;;;;;;5044493;28;20510;-30
2021/12/30 12:17:46;;;;;;;1.73;1.30;;;;;;;;;;5044211;28;20036;-31
2021/12/30 12:20:21;;;;;;;1.67;1.40;;;;;;;;;;5043929;28;20036;-34
2021/12/30 12:22:46;;;;;;;1.90;1.50;;;;;;;;;;5044276;28;20102;-34
2021/12/30 12:25:18;;;;;;;2.20;1.48;;;;;;;;;;5043710;28;20690;-34
2021/12/30 12:27:54;;;;;;;2.22;1.73;;;;;;;;;;5043984;28;20033;-34
2021/12/30 12:30:28;;;;;;;2.22;1.33;;;;;;;;;;5043772;28;20033;-35
2021/12/30 12:32:54;;;;;;;2.50;1.80;;;;;;;;;;5044428;28;20076;-33
2021/12/30 12:35:19;;;;;;;1.80;1.50;;;;;;;;;;5044076;28;20056;-34
2021/12/30 12:37:47;;;;;;;2.00;1.63;;;;;;;;;;5043840;28;20091;-34
2021/12/30 12:40:15;;;;;;;2.17;1.70;;;;;;;;;;5043614;28;20033;-31
2021/12/30 12:42:53;;;;;;;1.98;1.52;;;;;;;;;;5043695;28;20033;-32
2021/12/30 12:45:29;;;;;;;2.60;2.15;;;;;;;;;;5043948;28;20033;-34
2021/12/30 12:48:16;;;;;;;2.20;1.73;;;;;;;;;;5038665;28;20562;-34
2021/12/30 12:50:46;;;;;;;2.15;1.60;;;;;;;;;;5023330;28;20116;-31
2021/12/30 12:53:20;;;;;;;2.72;2.00;;;;;;;;;;5023601;28;20057;-32
2021/12/30 12:55:46;;;;;;;2.00;1.80;;;;;;;;;;5023571;28;20523;-28
2021/12/30 12:58:11;;;;;;;2.80;1.90;;;;;;;;;;5023705;28;20052;-34
2021/12/30 13:00:37;;;;;;;2.05;1.80;;;;;;;;;;5023484;28;20103;-31
2021/12/30 13:03:03;;;;;;;2.83;2.00;;;;;;;;;;5038363;28;20037;-32
2021/12/30 13:05:28;;;;;;;2.60;2.00;;;;;;;;;;5043400;28;20064;-35
2021/12/30 13:07:54;;;;;;;2.03;1.83;;;;;;;;;;5043038;28;20049;-32
2021/12/30 13:10:20;;;;;;;2.88;2.03;;;;;;;;;;5025065;28;20521;-32
2021/12/30 13:12:47;;;;;;;2.22;2.00;;;;;;;;;;5043474;28;20032;-32
2021/12/30 13:15:14;;;;;;;2.55;1.80;;;;;;;;;;5042516;28;20033;-36
2021/12/30 13:17:43;;;;;;;2.85;1.80;;;;;;;;;;5043338;28;20033;-35
2021/12/30 13:20:09;;;;;;;2.67;1.77;;;;;;;;;;5043212;28;20033;-31
2021/12/30 13:22:35;;;;;;;2.90;1.92;;;;;;;;;;5043181;28;20029;-32
2021/12/30 13:25:01;;;;;;;2.72;2.30;;;;;;;;;;5043307;28;20601;-29
2021/12/30 13:27:34;;;;;;;2.33;1.73;;;;;;;;;;5043043;28;20032;-34
2021/12/30 13:30:05;;;;;;;2.13;1.77;;;;;;;;;;5042826;28;20021;-29
2021/12/30 13:32:32;;;;;;;2.05;1.70;;;;;;;;;;5042790;28;20048;-31
2021/12/30 13:35:06;;;;;;;2.63;1.90;;;;;;;;;;5042853;28;20052;-32
2021/12/30 13:37:40;;;;;;;2.80;1.90;;;;;;;;;;5042768;28;20024;-30
2021/12/30 13:40:30;;;;;;;2.40;1.85;;;;;;;;;;5042992;28;20384;-30
2021/12/30 13:43:00;;;;;;;3.17;2.00;;;;;;;;;;5042934;28;20483;-30
2021/12/30 13:45:31;;;;;;;2.53;1.75;;;;;;;;;;5042816;28;20029;-29
2021/12/30 13:48:19;;;;;;;1.90;1.50;;;;;;;;;;5042041;28;20025;-31
2021/12/30 13:50:56;;;;;;;2.95;2.03;;;;;;;;;;5036480;28;20043;-37
2021/12/30 13:53:21;;;;;;;2.58;1.92;;;;;;;;;;5022842;28;20090;-30
2021/12/30 13:55:54;;;;;;;2.65;1.70;;;;;;;;;;5022669;28;20488;-29
2021/12/30 13:58:21;;;;;;;;;;;;;;;;;;5023231;28;20542;-32
2021/12/30 14:01:08;;;;;;;1.90;1.67;;;;;;;;;;5022666;28;19921;-32
2021/12/30 14:03:35;;;;;;;2.50;2.03;;;;;;;;;;5022071;28;20040;-31
2021/12/30 14:06:17;;;;;;;3.08;2.30;;;;;;;;;;5022375;28;20034;-31
2021/12/30 14:08:54;;;;;;;2.80;1.85;;;;;;;;;;5022407;28;20063;-30
2021/12/30 14:11:49;;;;;;;2.17;1.77;;;;;;;;;;5022793;28;20087;-32
2021/12/30 14:14:17;;;;;;;3.50;2.33;;;;;;;;;;5017659;28;20592;-33
2021/12/30 14:16:47;;;;;;;3.53;2.38;;;;;;;;;;5022528;28;20064;-29
2021/12/30 14:19:13;;;;;;;3.30;2.10;;;;;;;;;;5022593;28;20107;-34
2021/12/30 14:21:41;;;;;;;2.92;2.28;;;;;;;;;;5022767;28;20029;-28
2021/12/30 14:24:26;;;;;;;2.90;2.17;;;;;;;;;;5022466;28;20025;-30
2021/12/30 14:27:19;;;;;;;3.13;2.45;;;;;;;;;;5025787;28;20041;-31
2021/12/30 14:29:44;;;;;;;3.10;2.45;;;;;;;;;;5023834;28;20052;-29
2021/12/30 14:32:12;;;;;;;3.75;2.42;;;;;;;;;;5043616;28;20040;-33
2021/12/30 14:34:48;;;;;;;3.78;2.53;;;;;;;;;;5046385;28;20455;-32
2021/12/30 14:37:24;;;;;;;3.67;2.28;;;;;;;;;;5046170;28;20021;-31
2021/12/30 14:39:51;;;;;;;3.72;2.60;;;;;;;;;;5046029;28;20578;-28
2021/12/30 14:42:26;;;;;;;3.97;2.78;;;;;;;;;;5046081;28;20041;-35
2021/12/30 14:45:08;;;;;;;3.95;2.60;;;;;;;;;;5045975;28;20028;-31
2021/12/30 14:47:35;;;;;;;4.47;3.05;;;;;;;;;;5041975;28;20141;-33